Canadian Empress — VX6095 — position and weather

sailwx.info

Track history (hours):
 
Tides and Currents Weather Stations Pressure Air Temp Water Temp Dewpoint Dewpoint Depression Visibility Wind Speed Wind Dir Waves Ship Positions

Canadian Empress

Last reported at 2016-Sep-29 15:32 UTC. Time now 2016-Oct-01 22:24 UTC.
Position N 46°07' W 072°58'.

Length 32 m.

Type: Passenger vessel. MMSI: 314954012.

Date/timePositionNaut miles runAvg speedWind from/ knotsBaromVisibWave heightAir tempDewpointWater temp
2016-Sep-29 15:32N 46°07' W 072°58'1010.4
2016-Sep-29 14:33N 46°01' W 073°10'1111.1
2016-Sep-29 13:33N 45°51' W 073°16'42 1.7
2016-Sep-28 12:33N 45°19' W 073°55'  
2016-Sep-24 22:15N 44°14' W 076°29'0 0.0
2016-Sep-24 21:34N 44°14' W 076°29'1 0.4
2016-Sep-24 18:31N 44°13' W 076°30'0 0.4
2016-Sep-24 17:34N 44°13' W 076°30'  
2016-Sep-21 16:34N 45°21' W 073°51'8 0.6
2016-Sep-21 03:04N 45°26' W 073°42'2 4.6
2016-Sep-21 02:33N 45°25' W 073°45'3 0.3
2016-Sep-20 14:21N 45°25' W 073°40'6 7.9
2016-Sep-20 13:33N 45°23' W 073°49'17 5.7
2016-Sep-20 10:30N 45°14' W 074°10'  
Track history (hours):
 
Tides and Currents Weather Stations Pressure Air Temp Water Temp Dewpoint Dewpoint Depression Visibility Wind Speed Wind Dir Waves Ship Positions

Canadian Empress

Last reported at 2016-Sep-29 15:32 UTC. Time now 2016-Oct-01 22:24 UTC.
Position N 46°07' W 072°58'.

Length 32 m.

Type: Passenger vessel. MMSI: 314954012.

Date/timePositionNaut miles runAvg speedWind from/ knotsBaromVisibWave heightAir tempDewpointWater temp
2016-Sep-29 15:32N 46°07' W 072°58'1010.4
2016-Sep-29 14:33N 46°01' W 073°10'1111.1
2016-Sep-29 13:33N 45°51' W 073°16'42 1.7
2016-Sep-28 12:33N 45°19' W 073°55'  
2016-Sep-24 22:15N 44°14' W 076°29'0 0.0
2016-Sep-24 21:34N 44°14' W 076°29'1 0.4
2016-Sep-24 18:31N 44°13' W 076°30'0 0.4
2016-Sep-24 17:34N 44°13' W 076°30'  
2016-Sep-21 16:34N 45°21' W 073°51'8 0.6
2016-Sep-21 03:04N 45°26' W 073°42'2 4.6
2016-Sep-21 02:33N 45°25' W 073°45'3 0.3
2016-Sep-20 14:21N 45°25' W 073°40'6 7.9
2016-Sep-20 13:33N 45°23' W 073°49'17 5.7
2016-Sep-20 10:30N 45°14' W 074°10'  

Dump ship's entire track history